createdAt,value
2023-02-19T05:46:08.792Z,10.73
2023-02-19T05:47:10.633Z,10.42
2023-02-19T05:48:12.448Z,8.63
2023-02-19T05:49:14.267Z,8.91
2023-02-19T05:50:16.582Z,12.11
2023-02-19T05:51:18.413Z,8.66
2023-02-19T05:52:20.421Z,8.00
2023-02-19T05:53:22.192Z,8.99
2023-02-19T05:54:23.991Z,9.59
2023-02-19T05:55:25.803Z,8.85
2023-02-19T05:56:27.661Z,9.14
2023-02-19T05:57:29.471Z,9.75
2023-02-19T05:58:31.290Z,9.57
2023-02-19T05:59:33.113Z,6.75
2023-02-19T06:00:35.135Z,8.07
2023-02-19T06:01:36.951Z,10.37
2023-02-19T06:02:39.915Z,7.99
2023-02-19T06:03:41.729Z,9.68
2023-02-19T06:04:43.519Z,10.14
2023-02-19T06:05:45.320Z,9.13
2023-02-19T06:06:47.116Z,8.04
2023-02-19T06:07:50.747Z,7.22
2023-02-19T06:08:52.609Z,8.32
2023-02-19T06:09:54.432Z,6.26
2023-02-19T06:10:56.437Z,8.31
2023-02-19T06:11:58.349Z,7.05
2023-02-19T06:13:00.296Z,9.81
2023-02-19T06:14:02.097Z,7.19
2023-02-19T06:15:03.905Z,8.93
2023-02-19T06:16:05.885Z,6.92
2023-02-19T06:17:07.769Z,10.06
2023-02-19T06:18:09.626Z,8.99
2023-02-19T06:19:11.424Z,7.34
2023-02-19T06:20:13.458Z,6.42
2023-02-19T06:21:15.244Z,6.29
2023-02-19T06:22:17.041Z,7.59
2023-02-19T06:23:18.895Z,6.17
2023-02-19T06:24:20.729Z,7.95
2023-02-19T06:25:22.527Z,7.61
2023-02-19T06:26:24.326Z,8.07
2023-02-19T06:27:26.252Z,9.70
2023-02-19T06:28:28.140Z,8.73
2023-02-19T06:29:30.028Z,12.81
2023-02-19T06:30:32.288Z,9.13
2023-02-19T06:31:34.261Z,9.92
2023-02-19T06:32:36.115Z,10.31
2023-02-19T06:33:37.945Z,13.33
2023-02-19T06:34:39.856Z,8.74
2023-02-19T06:35:41.656Z,10.63
2023-02-19T06:36:43.468Z,15.23
2023-02-19T06:37:45.269Z,16.03
2023-02-19T06:38:47.228Z,23.25
2023-02-19T06:39:49.099Z,22.58
2023-02-19T06:40:50.914Z,23.04
2023-02-19T06:41:52.935Z,34.56
2023-02-19T06:42:54.741Z,36.66
2023-02-19T06:43:56.581Z,41.89
2023-02-19T06:44:58.397Z,32.02
2023-02-19T06:46:00.212Z,19.17
2023-02-19T06:47:02.038Z,17.47
2023-02-19T06:48:03.870Z,15.25
2023-02-19T06:49:05.781Z,13.85
2023-02-19T06:50:07.826Z,13.65
2023-02-19T06:51:09.982Z,12.60
2023-02-19T06:52:11.957Z,13.84
2023-02-19T06:53:13.774Z,12.59
2023-02-19T06:54:15.624Z,11.90
2023-02-19T06:55:17.459Z,13.19
2023-02-19T06:56:19.582Z,14.33
2023-02-19T06:57:21.378Z,13.67
2023-02-19T06:58:23.900Z,12.13
2023-02-19T06:59:25.751Z,13.23
2023-02-19T07:00:27.551Z,13.05
2023-02-19T07:01:29.350Z,9.85
2023-02-19T07:02:31.173Z,10.31
2023-02-19T07:03:32.962Z,8.26
2023-02-19T07:04:34.819Z,9.63
2023-02-19T07:05:36.661Z,11.17
2023-02-19T07:06:38.547Z,11.52
2023-02-19T07:07:40.345Z,8.12
2023-02-19T07:08:42.148Z,12.26
2023-02-19T07:09:44.001Z,9.78
2023-02-19T07:10:45.806Z,12.76
2023-02-19T07:11:47.604Z,13.08
2023-02-19T07:12:49.415Z,12.49
2023-02-19T07:13:51.199Z,15.90
2023-02-19T07:14:53.080Z,12.17
2023-02-19T07:15:54.914Z,12.15
2023-02-19T07:16:56.953Z,14.21
2023-02-19T07:17:58.740Z,11.80
2023-02-19T07:19:00.585Z,12.31
2023-02-19T07:20:02.420Z,12.94
2023-02-19T07:21:04.225Z,11.33
2023-02-19T07:22:06.041Z,10.51
2023-02-19T07:23:07.869Z,11.07
2023-02-19T07:24:09.711Z,9.25
2023-02-19T07:25:11.573Z,11.11
2023-02-19T07:26:13.676Z,12.53
2023-02-19T07:27:15.505Z,14.05
2023-02-19T07:28:17.305Z,10.97
2023-02-19T07:29:19.100Z,11.42
2023-02-19T07:30:21.196Z,8.59
2023-02-19T07:31:23.008Z,10.36
2023-02-19T07:32:24.862Z,11.07
2023-02-19T07:33:26.658Z,9.57
2023-02-19T07:34:28.466Z,9.33
2023-02-19T07:35:30.336Z,14.19
2023-02-19T07:36:32.130Z,18.32
2023-02-19T07:37:33.963Z,21.39
2023-02-19T07:38:35.758Z,24.07
2023-02-19T07:39:37.602Z,22.90
2023-02-19T07:40:39.464Z,18.52
2023-02-19T07:41:41.270Z,15.06
2023-02-19T07:42:43.067Z,24.24
2023-02-19T07:43:44.899Z,24.62
2023-02-19T07:44:46.751Z,20.67
2023-02-19T07:45:48.651Z,14.44
2023-02-19T07:46:50.604Z,14.39
2023-02-19T07:47:52.418Z,12.99
2023-02-19T07:48:54.241Z,13.99
2023-02-19T07:49:56.052Z,14.20
2023-02-19T07:50:59.712Z,11.55
2023-02-19T07:52:01.523Z,13.23
2023-02-19T07:53:03.335Z,13.70
2023-02-19T07:54:05.149Z,14.17
2023-02-19T07:55:06.956Z,13.49
2023-02-19T07:56:09.003Z,17.08
2023-02-19T07:57:10.839Z,12.35
2023-02-19T07:58:12.730Z,15.37
2023-02-19T07:59:14.510Z,13.46
2023-02-19T08:00:16.559Z,12.97
2023-02-19T08:01:18.501Z,12.17
2023-02-19T08:02:20.340Z,10.83
2023-02-19T08:03:22.229Z,11.80
2023-02-19T08:04:24.068Z,12.54
2023-02-19T08:05:25.929Z,12.54
2023-02-19T08:06:27.892Z,10.97
2023-02-19T08:07:29.719Z,11.59
2023-02-19T08:08:31.539Z,12.25
2023-02-19T08:09:33.342Z,10.60
2023-02-19T08:10:35.377Z,12.85
2023-02-19T08:11:37.233Z,15.63
2023-02-19T08:12:39.046Z,12.20
2023-02-19T08:13:40.855Z,11.16
2023-02-19T08:14:42.663Z,10.43
2023-02-19T08:15:44.585Z,10.61
2023-02-19T08:16:46.455Z,9.25
2023-02-19T08:17:48.317Z,10.53
2023-02-19T08:18:50.190Z,10.53
2023-02-19T08:19:51.981Z,8.48
2023-02-19T08:20:53.810Z,19.59
2023-02-19T08:21:55.650Z,12.78
2023-02-19T08:22:57.457Z,12.32
2023-02-19T08:23:59.273Z,11.47
2023-02-19T08:25:01.160Z,13.03
2023-02-19T08:26:03.156Z,10.21
2023-02-19T08:27:05.000Z,13.35
2023-02-19T08:28:06.824Z,25.23
2023-02-19T08:29:08.670Z,33.61
2023-02-19T08:30:10.831Z,33.63
2023-02-19T08:31:12.960Z,39.68
2023-02-19T08:32:15.181Z,37.93
2023-02-19T08:33:17.059Z,36.39
2023-02-19T08:34:18.872Z,33.33
2023-02-19T08:35:20.683Z,39.41
2023-02-19T08:36:22.693Z,41.32
2023-02-19T08:37:24.635Z,34.62
2023-02-19T08:38:26.433Z,30.10
2023-02-19T08:39:28.253Z,32.45
2023-02-19T08:40:30.085Z,21.02
2023-02-19T08:41:31.911Z,16.00
2023-02-19T08:42:33.754Z,18.56
2023-02-19T08:43:35.576Z,23.18
2023-02-19T08:44:37.371Z,32.18
2023-02-19T08:45:39.192Z,24.99
2023-02-19T08:46:40.995Z,18.09
2023-02-19T08:47:42.848Z,13.05
2023-02-19T08:48:44.671Z,14.63
2023-02-19T08:49:46.466Z,13.82
2023-02-19T08:50:48.284Z,13.16
2023-02-19T08:51:50.098Z,12.51
2023-02-19T08:52:51.943Z,14.28
2023-02-19T08:53:53.959Z,11.84
2023-02-19T08:54:55.757Z,12.56
2023-02-19T08:55:57.710Z,12.47
2023-02-19T08:56:59.674Z,12.51
2023-02-19T08:58:01.736Z,16.55
2023-02-19T08:59:03.540Z,12.26
2023-02-19T09:00:05.997Z,14.27
2023-02-19T09:01:07.841Z,20.89
2023-02-19T09:02:09.685Z,27.07
2023-02-19T09:03:11.611Z,16.56
2023-02-19T09:04:13.456Z,12.58
2023-02-19T09:05:15.219Z,10.81
2023-02-19T09:06:18.833Z,12.85
2023-02-19T09:07:20.730Z,11.07
2023-02-19T09:08:22.624Z,10.07
2023-02-19T09:09:24.400Z,11.48
2023-02-19T09:10:26.199Z,11.85
2023-02-19T09:11:28.035Z,12.22
2023-02-19T09:12:29.848Z,14.33
2023-02-19T09:13:31.734Z,13.06
2023-02-19T09:14:33.528Z,12.27
2023-02-19T09:15:35.391Z,12.39
2023-02-19T09:16:37.263Z,10.40
2023-02-19T09:17:39.066Z,11.09
2023-02-19T09:18:40.913Z,13.95
2023-02-19T09:19:42.724Z,12.93
2023-02-19T09:20:44.637Z,13.53
2023-02-19T09:21:46.458Z,13.21
2023-02-19T09:22:48.266Z,13.68
2023-02-19T09:23:50.105Z,9.73
2023-02-19T09:24:51.940Z,12.47
2023-02-19T09:25:53.785Z,15.79
2023-02-19T09:26:55.597Z,12.84
2023-02-19T09:27:57.408Z,14.46
2023-02-19T09:28:59.264Z,16.68
2023-02-19T09:30:01.165Z,16.62
2023-02-19T09:31:02.976Z,16.05
2023-02-19T09:32:04.806Z,13.59
2023-02-19T09:33:06.684Z,13.08
2023-02-19T09:34:08.523Z,13.08
2023-02-19T09:35:10.348Z,11.19
2023-02-19T09:36:12.766Z,11.73
2023-02-19T09:37:14.576Z,13.71
2023-02-19T09:38:16.375Z,12.16
2023-02-19T09:39:18.229Z,12.95
2023-02-19T09:40:20.171Z,12.81
2023-02-19T09:41:21.984Z,14.60
2023-02-19T09:42:23.800Z,16.19
2023-02-19T09:43:25.627Z,11.53
2023-02-19T09:44:27.567Z,15.51
2023-02-19T09:45:29.391Z,11.14
2023-02-19T09:46:31.307Z,69.08
2023-02-19T09:47:33.201Z,70.07
2023-02-19T09:48:35.028Z,65.09
2023-02-19T09:49:36.968Z,56.09
2023-02-19T09:50:38.787Z,54.88
2023-02-19T09:51:40.576Z,56.11
2023-02-19T09:52:42.452Z,57.05
2023-02-19T09:53:44.289Z,57.46
2023-02-19T09:54:46.119Z,55.16
2023-02-19T09:55:47.924Z,50.35
2023-02-19T09:56:49.839Z,54.81
2023-02-19T09:57:51.643Z,54.90
2023-02-19T09:58:53.442Z,56.81
2023-02-19T09:59:55.347Z,49.05
2023-02-19T10:00:57.252Z,48.09
2023-02-19T10:01:59.071Z,54.56
2023-02-19T10:03:00.859Z,45.21
2023-02-19T10:04:02.668Z,44.71
2023-02-19T10:05:04.522Z,41.48
2023-02-19T10:06:08.210Z,45.63
2023-02-19T10:07:10.238Z,45.74
2023-02-19T10:08:12.045Z,40.05
2023-02-19T10:09:13.869Z,40.17
2023-02-19T10:10:16.017Z,41.59
2023-02-19T10:11:17.798Z,36.17
2023-02-19T10:12:19.609Z,30.53
2023-02-19T10:13:21.392Z,41.59
2023-02-19T10:14:23.205Z,38.96
2023-02-19T10:15:25.049Z,38.82
2023-02-19T10:16:26.946Z,35.90
2023-02-19T10:17:28.740Z,36.77
2023-02-19T10:18:30.552Z,35.02
2023-02-19T10:19:32.349Z,33.37
2023-02-19T10:20:34.383Z,32.25
2023-02-19T10:21:36.179Z,31.24
2023-02-19T10:22:38.024Z,33.03
2023-02-19T10:23:39.794Z,34.57
2023-02-19T10:24:41.586Z,37.39
2023-02-19T10:25:43.433Z,32.67
2023-02-19T10:26:45.332Z,32.45
2023-02-19T10:27:47.139Z,31.37
2023-02-19T10:28:48.948Z,34.61
2023-02-19T10:29:50.756Z,28.69
2023-02-19T10:30:52.755Z,34.37
2023-02-19T10:31:54.576Z,32.95
2023-02-19T10:32:56.398Z,33.84
2023-02-19T10:33:58.201Z,28.11
2023-02-19T10:34:59.988Z,28.71
2023-02-19T10:36:01.846Z,33.50
2023-02-19T10:37:03.647Z,28.43
2023-02-19T10:38:05.453Z,50.90
2023-02-19T10:39:07.240Z,40.64
2023-02-19T10:40:09.544Z,35.03
2023-02-19T10:41:11.857Z,37.87
2023-02-19T10:42:13.827Z,32.11
2023-02-19T10:43:15.699Z,30.55
2023-02-19T10:44:17.483Z,36.00
2023-02-19T10:45:19.305Z,41.47
2023-02-19T10:46:21.400Z,33.15
2023-02-19T10:47:23.176Z,40.19
2023-02-19T10:48:24.984Z,46.15
2023-02-19T10:49:26.793Z,35.61
2023-02-19T10:50:28.756Z,42.25
2023-02-19T10:51:30.686Z,40.99
2023-02-19T10:52:32.505Z,48.15
2023-02-19T10:53:34.344Z,48.44
2023-02-19T10:54:36.258Z,52.96
2023-02-19T10:55:38.257Z,47.38
2023-02-19T10:56:40.231Z,51.71
2023-02-19T10:57:42.030Z,64.74
2023-02-19T10:58:43.845Z,61.33
2023-02-19T10:59:45.671Z,60.95
2023-02-19T11:00:47.489Z,70.24
2023-02-19T11:01:50.168Z,61.61
2023-02-19T11:02:51.976Z,72.03
2023-02-19T11:03:53.805Z,68.83
2023-02-19T11:04:55.574Z,55.95
2023-02-19T11:05:57.370Z,53.32
2023-02-19T11:06:59.213Z,67.93
2023-02-19T11:08:01.065Z,61.98
2023-02-19T11:09:02.888Z,50.69
2023-02-19T11:10:05.016Z,11.75
2023-02-19T11:11:06.834Z,11.70
2023-02-19T11:12:09.705Z,10.73
2023-02-19T11:13:11.624Z,14.18
2023-02-19T11:14:13.451Z,13.39
2023-02-19T11:15:15.280Z,13.93
2023-02-19T11:16:19.004Z,11.34
2023-02-19T11:17:20.957Z,11.45
2023-02-19T11:18:22.766Z,10.24
2023-02-19T11:19:24.574Z,11.01
2023-02-19T11:20:26.572Z,9.91
2023-02-19T11:21:28.389Z,10.92
2023-02-19T11:22:30.224Z,13.65
2023-02-19T11:23:32.067Z,10.66
2023-02-19T11:24:33.905Z,11.01
2023-02-19T11:25:35.687Z,8.61
2023-02-19T11:26:37.592Z,9.33
2023-02-19T11:27:39.701Z,11.81
2023-02-19T11:28:41.510Z,11.22
2023-02-19T11:29:43.329Z,10.99
2023-02-19T11:30:45.166Z,10.08
2023-02-19T11:31:47.076Z,12.60
2023-02-19T11:32:49.038Z,16.50
2023-02-19T11:33:50.860Z,9.01
2023-02-19T11:34:52.664Z,8.49
2023-02-19T11:35:54.485Z,12.66
2023-02-19T11:36:56.283Z,10.92
2023-02-19T11:37:58.147Z,9.83
2023-02-19T11:38:59.980Z,10.44
2023-02-19T11:40:01.774Z,11.01
2023-02-19T11:41:03.585Z,11.51
2023-02-19T11:42:05.400Z,11.86
2023-02-19T11:43:07.275Z,10.67
2023-02-19T11:44:09.091Z,13.34
2023-02-19T11:45:10.895Z,11.30
2023-02-19T11:46:14.459Z,12.86
2023-02-19T11:47:16.240Z,13.03
2023-02-19T11:48:18.100Z,11.15
2023-02-19T11:49:19.921Z,10.75
2023-02-19T11:50:21.900Z,11.57
2023-02-19T11:51:23.726Z,13.05
2023-02-19T11:52:25.533Z,10.50
2023-02-19T11:53:27.408Z,10.45
2023-02-19T11:54:29.195Z,10.89
2023-02-19T11:55:31.009Z,9.31
2023-02-19T11:56:33.048Z,8.73
2023-02-19T11:57:34.857Z,11.29
2023-02-19T11:58:36.738Z,8.96
2023-02-19T11:59:38.547Z,7.55
2023-02-19T12:00:40.472Z,10.08
2023-02-19T12:01:42.304Z,10.72
2023-02-19T12:02:44.088Z,6.97
2023-02-19T12:03:46.007Z,10.81
2023-02-19T12:04:47.846Z,10.70
2023-02-19T12:05:49.652Z,12.81
2023-02-19T12:06:51.451Z,11.94
2023-02-19T12:07:53.279Z,12.44
2023-02-19T12:08:55.111Z,10.23
2023-02-19T12:09:56.929Z,10.77
2023-02-19T12:10:58.920Z,10.09
2023-02-19T12:12:00.737Z,9.66
2023-02-19T12:13:02.570Z,10.01
2023-02-19T12:14:04.443Z,8.26
2023-02-19T12:15:06.234Z,8.34
2023-02-19T12:16:08.615Z,6.97
2023-02-19T12:17:10.374Z,7.07
2023-02-19T12:18:12.184Z,8.19
2023-02-19T12:19:14.042Z,14.00
2023-02-19T12:20:15.950Z,14.00
2023-02-19T12:21:17.759Z,10.14
2023-02-19T12:22:19.555Z,9.52
2023-02-19T12:23:21.365Z,7.69
2023-02-19T12:24:23.229Z,10.22
2023-02-19T12:25:25.062Z,9.22
2023-02-19T12:26:26.867Z,9.76
2023-02-19T12:27:28.679Z,9.31
2023-02-19T12:28:31.515Z,9.51
2023-02-19T12:29:33.468Z,9.86
2023-02-19T12:30:35.531Z,7.17
2023-02-19T12:31:37.397Z,11.05
2023-02-19T12:32:39.182Z,14.48
2023-02-19T12:33:40.984Z,18.87
2023-02-19T12:34:42.897Z,15.27
2023-02-19T12:35:44.688Z,11.43
2023-02-19T12:36:46.643Z,11.52
2023-02-19T12:37:48.466Z,10.96
2023-02-19T12:38:50.291Z,11.34
2023-02-19T12:39:52.166Z,12.21
2023-02-19T12:40:54.104Z,11.57
2023-02-19T12:41:55.956Z,13.84
2023-02-19T12:42:57.782Z,13.67
2023-02-19T12:43:59.586Z,12.85
2023-02-19T12:45:01.450Z,12.62
2023-02-19T12:46:03.569Z,11.23
2023-02-19T12:47:05.405Z,12.91
2023-02-19T12:48:07.242Z,13.76
2023-02-19T12:49:09.045Z,11.54
2023-02-19T12:50:11.421Z,9.08
2023-02-19T12:51:13.214Z,11.72
2023-02-19T12:52:15.038Z,14.29
2023-02-19T12:53:16.866Z,14.09
2023-02-19T12:54:18.674Z,14.80
2023-02-19T12:55:20.530Z,14.50
2023-02-19T12:56:22.541Z,14.57
2023-02-19T12:57:24.373Z,15.85
2023-02-19T12:58:26.271Z,15.74
2023-02-19T12:59:28.077Z,13.37
2023-02-19T13:00:29.983Z,13.67
2023-02-19T13:01:31.829Z,14.25
2023-02-19T13:02:33.795Z,13.43
2023-02-19T13:03:35.622Z,13.46
2023-02-19T13:04:37.449Z,14.24
2023-02-19T13:05:39.328Z,14.15
2023-02-19T13:06:41.150Z,14.54
2023-02-19T13:07:42.960Z,18.19
2023-02-19T13:08:57.847Z,15.75
2023-02-19T13:09:48.421Z,16.30
2023-02-19T13:10:52.945Z,18.69
2023-02-19T13:11:54.836Z,18.63
2023-02-19T13:12:56.689Z,18.14
2023-02-19T13:13:58.531Z,20.27
2023-02-19T13:15:00.354Z,13.19
2023-02-19T13:16:02.271Z,13.23
2023-02-19T13:17:04.152Z,11.94
2023-02-19T13:18:06.023Z,10.82
2023-02-19T13:19:07.840Z,11.74
2023-02-19T13:20:09.893Z,12.80
2023-02-19T13:21:12.027Z,10.99
2023-02-19T13:22:14.142Z,10.91
2023-02-19T13:23:15.951Z,9.15
2023-02-19T13:24:17.755Z,12.65
2023-02-19T13:25:19.619Z,14.06
2023-02-19T13:26:22.094Z,11.76
2023-02-19T13:27:23.913Z,13.77
2023-02-19T13:28:25.738Z,15.46
2023-02-19T13:29:27.540Z,10.85
2023-02-19T13:30:29.424Z,10.99
2023-02-19T13:31:31.424Z,10.82
2023-02-19T13:32:33.314Z,12.01
2023-02-19T13:33:35.260Z,11.83
2023-02-19T13:34:37.065Z,9.46
2023-02-19T13:35:38.865Z,9.40
2023-02-19T13:36:40.827Z,11.50
2023-02-19T13:37:42.638Z,10.31
2023-02-19T13:38:44.457Z,8.90
2023-02-19T13:39:46.280Z,12.49
2023-02-19T13:40:48.174Z,12.39
2023-02-19T13:41:50.048Z,13.28
2023-02-19T13:42:51.852Z,10.95
2023-02-19T13:43:53.650Z,10.18
2023-02-19T13:44:57.945Z,10.09
2023-02-19T13:45:59.170Z,9.84
2023-02-19T13:47:01.790Z,9.93
2023-02-19T13:48:03.586Z,11.17
2023-02-19T13:49:05.395Z,19.19
2023-02-19T13:50:07.554Z,15.03
2023-02-19T13:51:10.128Z,32.09
2023-02-19T13:52:12.211Z,25.65
2023-02-19T13:53:14.024Z,34.79
2023-02-19T13:54:15.841Z,35.84
2023-02-19T13:55:17.650Z,32.03
2023-02-19T13:56:20.374Z,36.16
2023-02-19T13:57:22.314Z,39.71
2023-02-19T13:58:24.133Z,55.40
2023-02-19T13:59:25.964Z,49.07
2023-02-19T14:00:27.785Z,39.43
2023-02-19T14:01:29.638Z,35.45
2023-02-19T14:02:31.503Z,27.21
2023-02-19T14:03:33.280Z,16.72
2023-02-19T14:04:37.698Z,12.43
2023-02-19T14:05:39.567Z,10.22
2023-02-19T14:06:41.364Z,10.51
2023-02-19T14:07:43.221Z,12.85
2023-02-19T14:08:45.070Z,11.56
2023-02-19T14:09:46.879Z,11.51
2023-02-19T14:10:48.688Z,12.15
2023-02-19T14:11:50.542Z,11.99
2023-02-19T14:12:52.404Z,9.31
2023-02-19T14:13:54.209Z,9.59
2023-02-19T14:14:56.049Z,9.34
2023-02-19T14:15:57.947Z,8.12
2023-02-19T14:17:00.101Z,11.22
2023-02-19T14:18:01.959Z,12.07
2023-02-19T14:19:03.774Z,8.84
2023-02-19T14:20:05.738Z,10.73
2023-02-19T14:21:07.503Z,8.34
2023-02-19T14:22:09.296Z,9.39
2023-02-19T14:23:11.188Z,10.67
2023-02-19T14:24:13.039Z,11.74
2023-02-19T14:25:14.840Z,9.41
2023-02-19T14:26:17.151Z,9.27
2023-02-19T14:27:18.966Z,12.50
2023-02-19T14:28:20.839Z,11.05
2023-02-19T14:29:22.630Z,11.35
2023-02-19T14:30:24.677Z,9.07
2023-02-19T14:31:26.576Z,11.60
2023-02-19T14:32:28.455Z,11.27
2023-02-19T14:33:30.319Z,14.74
2023-02-19T14:34:32.117Z,20.83
2023-02-19T14:35:33.912Z,34.02
2023-02-19T14:36:35.738Z,30.15
2023-02-19T14:37:37.544Z,24.92
2023-02-19T14:38:39.441Z,24.47
2023-02-19T14:39:41.227Z,25.81
2023-02-19T14:40:43.254Z,25.93
2023-02-19T14:41:45.053Z,23.02
2023-02-19T14:42:46.853Z,20.36
2023-02-19T14:43:48.694Z,22.32
2023-02-19T14:44:50.503Z,19.30
2023-02-19T14:45:52.304Z,17.69
2023-02-19T14:46:54.134Z,19.40
2023-02-19T14:47:55.936Z,15.56
2023-02-19T14:48:57.786Z,20.30
2023-02-19T14:49:59.682Z,20.29
2023-02-19T14:51:01.965Z,24.04
2023-02-19T14:52:03.785Z,21.55
2023-02-19T14:53:05.653Z,21.97
2023-02-19T14:54:07.499Z,22.46
2023-02-19T14:55:09.312Z,19.67
2023-02-19T14:56:11.632Z,17.61
2023-02-19T14:57:13.444Z,18.85
2023-02-19T14:58:15.242Z,16.89
2023-02-19T14:59:17.127Z,21.00
2023-02-19T15:00:20.029Z,19.96
2023-02-19T15:01:21.852Z,15.23
2023-02-19T15:02:23.636Z,14.61
2023-02-19T15:03:25.455Z,17.50
2023-02-19T15:04:27.569Z,23.34
2023-02-19T15:05:29.339Z,18.58
2023-02-19T15:06:31.354Z,26.51
2023-02-19T15:07:33.216Z,23.53
2023-02-19T15:08:35.642Z,22.75
2023-02-19T15:09:37.483Z,20.29
2023-02-19T15:10:39.301Z,27.81
2023-02-19T15:11:41.089Z,37.00
2023-02-19T15:12:42.946Z,56.48
2023-02-19T15:13:44.724Z,60.51
2023-02-19T15:14:46.579Z,60.91
2023-02-19T15:15:48.403Z,65.56
2023-02-19T15:16:50.331Z,66.90
2023-02-19T15:17:52.146Z,60.02
2023-02-19T15:18:53.943Z,61.78
2023-02-19T15:19:55.810Z,46.97
2023-02-19T15:20:57.818Z,35.23
2023-02-19T15:21:59.676Z,23.28
2023-02-19T15:23:01.512Z,19.54
2023-02-19T15:24:03.328Z,22.35
2023-02-19T15:25:05.184Z,26.75
2023-02-19T15:26:07.069Z,24.00
2023-02-19T15:27:08.881Z,23.88
2023-02-19T15:28:10.696Z,25.28
2023-02-19T15:29:12.520Z,28.55
2023-02-19T15:30:14.898Z,21.68
2023-02-19T15:31:16.917Z,24.07
2023-02-19T15:32:18.726Z,32.64
2023-02-19T15:33:20.490Z,32.70
2023-02-19T15:34:22.303Z,31.07
2023-02-19T15:35:24.163Z,30.99
2023-02-19T15:36:25.978Z,37.35
2023-02-19T15:37:27.786Z,34.46
2023-02-19T15:38:29.570Z,41.35
2023-02-19T15:39:31.580Z,41.15
2023-02-19T15:40:33.438Z,43.98
2023-02-19T15:41:35.257Z,44.65
2023-02-19T15:42:37.058Z,48.95
2023-02-19T15:43:38.868Z,52.55
2023-02-19T15:44:40.692Z,53.29
2023-02-19T15:45:42.529Z,53.91
2023-02-19T15:46:44.591Z,54.22
2023-02-19T15:47:46.486Z,52.47
2023-02-19T15:48:48.282Z,64.36
2023-02-19T15:49:50.082Z,57.87
2023-02-19T15:50:51.942Z,61.48
2023-02-19T15:51:53.798Z,64.37
2023-02-19T15:52:55.890Z,60.86
2023-02-19T15:53:58.509Z,58.92
2023-02-19T15:55:00.356Z,53.77
2023-02-19T15:56:02.219Z,56.47
2023-02-19T15:57:04.433Z,49.14
2023-02-19T15:58:06.235Z,61.61
2023-02-19T15:59:08.073Z,54.06
2023-02-19T16:00:10.106Z,48.04
2023-02-19T16:01:12.158Z,45.67
2023-02-19T16:02:14.176Z,39.83
2023-02-19T16:03:15.991Z,38.43
2023-02-19T16:04:17.786Z,40.23
2023-02-19T16:05:19.618Z,30.55
2023-02-19T16:06:21.794Z,28.11
2023-02-19T16:07:23.605Z,31.23
2023-02-19T16:08:25.404Z,26.31
2023-02-19T16:09:27.321Z,28.53
2023-02-19T16:10:29.111Z,32.31
2023-02-19T16:11:30.960Z,25.92
2023-02-19T16:12:32.795Z,21.24
2023-02-19T16:13:34.581Z,20.65
2023-02-19T16:14:36.420Z,19.09
2023-02-19T16:15:38.222Z,20.57
2023-02-19T16:16:40.298Z,22.41
2023-02-19T16:17:42.127Z,25.33
2023-02-19T16:18:43.927Z,25.38
2023-02-19T16:19:45.742Z,19.91
2023-02-19T16:20:47.648Z,18.85
2023-02-19T16:21:49.525Z,21.27
2023-02-19T16:22:51.336Z,23.80
2023-02-19T16:23:53.170Z,24.52
2023-02-19T16:24:54.978Z,24.83
2023-02-19T16:25:56.817Z,24.87
2023-02-19T16:26:58.760Z,22.40
2023-02-19T16:28:00.576Z,24.20
2023-02-19T16:29:02.381Z,29.65
2023-02-19T16:30:04.201Z,30.24
2023-02-19T16:31:06.049Z,34.81
2023-02-19T16:32:08.031Z,31.78
2023-02-19T16:33:09.903Z,31.57
2023-02-19T16:34:11.707Z,33.03
2023-02-19T16:35:13.506Z,29.91
2023-02-19T16:36:17.121Z,24.69
2023-02-19T16:37:18.963Z,24.29
2023-02-19T16:38:20.772Z,29.67
2023-02-19T16:39:22.597Z,27.14
2023-02-19T16:40:24.593Z,25.57
2023-02-19T16:41:26.420Z,23.57
2023-02-19T16:42:28.285Z,27.51
2023-02-19T16:43:30.093Z,25.52
2023-02-19T16:44:31.920Z,31.43
2023-02-19T16:45:33.736Z,29.21
2023-02-19T16:46:35.557Z,30.11
2023-02-19T16:47:37.424Z,26.97
2023-02-19T16:48:39.266Z,27.53
2023-02-19T16:49:41.083Z,29.30
2023-02-19T16:50:43.018Z,23.16
2023-02-19T16:51:44.867Z,23.33
2023-02-19T16:52:46.783Z,21.93
2023-02-19T16:53:48.609Z,20.26
2023-02-19T16:54:50.401Z,21.66
2023-02-19T16:55:52.216Z,33.41
2023-02-19T16:56:54.043Z,26.92
2023-02-19T16:57:55.927Z,25.61
2023-02-19T16:58:57.742Z,21.76
2023-02-19T16:59:59.535Z,20.91
2023-02-19T17:01:01.410Z,19.72
2023-02-19T17:02:03.185Z,23.31
2023-02-19T17:03:08.167Z,20.91
2023-02-19T17:04:10.058Z,21.40
2023-02-19T17:05:11.914Z,22.05
2023-02-19T17:06:13.914Z,22.24
2023-02-19T17:07:15.729Z,25.19
2023-02-19T17:08:17.607Z,20.61
2023-02-19T17:09:19.428Z,23.27
2023-02-19T17:10:21.244Z,21.94
2023-02-19T17:11:23.044Z,25.34
2023-02-19T17:12:24.848Z,28.46
2023-02-19T17:13:26.710Z,31.24
2023-02-19T17:14:28.543Z,32.98
2023-02-19T17:15:32.658Z,29.99
2023-02-19T17:16:34.539Z,30.14
2023-02-19T17:17:36.350Z,29.24
2023-02-19T17:18:38.208Z,28.91
2023-02-19T17:19:40.013Z,28.21
2023-02-19T17:20:41.816Z,31.23
2023-02-19T17:21:43.624Z,27.24
2023-02-19T17:22:45.461Z,29.44
2023-02-19T17:23:47.312Z,27.11
2023-02-19T17:24:49.119Z,26.57
2023-02-19T17:25:50.966Z,21.52
2023-02-19T17:26:52.840Z,17.13
2023-02-19T17:27:54.668Z,20.69
2023-02-19T17:28:56.536Z,22.60
2023-02-19T17:29:58.349Z,20.59
2023-02-19T17:31:00.255Z,19.89
2023-02-19T17:32:02.169Z,18.05
2023-02-19T17:33:03.998Z,18.80
2023-02-19T17:34:05.858Z,16.91
2023-02-19T17:35:07.716Z,18.26
2023-02-19T17:36:09.726Z,20.62
2023-02-19T17:37:11.705Z,17.66
2023-02-19T17:38:13.521Z,19.84
2023-02-19T17:39:15.392Z,15.65
2023-02-19T17:40:30.666Z,17.13
2023-02-19T17:41:21.040Z,11.61
2023-02-19T17:42:22.849Z,13.29
2023-02-19T17:43:25.505Z,17.04
2023-02-19T17:44:27.458Z,26.37
2023-02-19T17:45:29.267Z,24.46
2023-02-19T17:46:31.333Z,22.28
2023-02-19T17:47:33.170Z,21.06
2023-02-19T17:48:34.982Z,22.28
2023-02-19T17:49:36.851Z,18.97
2023-02-19T17:50:39.833Z,20.49
2023-02-19T17:51:41.646Z,17.62
2023-02-19T17:52:43.443Z,17.63
2023-02-19T17:53:45.349Z,20.23
2023-02-19T17:54:47.213Z,15.69
2023-02-19T17:55:49.030Z,17.47
2023-02-19T17:56:50.817Z,15.18
2023-02-19T17:57:52.652Z,16.12
2023-02-19T17:58:54.490Z,18.02
2023-02-19T17:59:56.354Z,23.15
2023-02-19T18:00:58.205Z,24.05
2023-02-19T18:01:59.999Z,17.69
2023-02-19T18:03:01.893Z,17.93
2023-02-19T18:04:03.720Z,16.30
2023-02-19T18:05:05.747Z,18.49
2023-02-19T18:06:08.980Z,12.93
2023-02-19T18:07:10.809Z,16.64
2023-02-19T18:08:12.643Z,15.73
2023-02-19T18:09:14.447Z,13.68
2023-02-19T18:10:16.810Z,16.65
2023-02-19T18:11:18.752Z,18.61
2023-02-19T18:12:20.574Z,17.87
2023-02-19T18:13:22.407Z,17.11
2023-02-19T18:14:24.231Z,19.67
2023-02-19T18:15:26.132Z,21.49
2023-02-19T18:16:28.215Z,23.15
2023-02-19T18:17:30.102Z,22.55
2023-02-19T18:18:31.931Z,24.95
2023-02-19T18:19:33.737Z,25.66
2023-02-19T18:20:35.619Z,30.19
2023-02-19T18:21:37.436Z,28.69
2023-02-19T18:22:39.244Z,28.20
2023-02-19T18:23:41.289Z,24.27
2023-02-19T18:24:43.409Z,25.99
2023-02-19T18:25:45.261Z,21.91
2023-02-19T18:26:47.163Z,19.30
2023-02-19T18:27:49.083Z,21.65
2023-02-19T18:28:50.933Z,19.56
2023-02-19T18:29:52.733Z,28.08
2023-02-19T18:30:54.708Z,23.74
2023-02-19T18:31:56.724Z,22.38
2023-02-19T18:32:58.617Z,20.85
2023-02-19T18:34:01.577Z,22.49
2023-02-19T18:35:03.409Z,22.62
2023-02-19T18:36:05.353Z,27.93
2023-02-19T18:37:07.168Z,24.99
2023-02-19T18:38:09.029Z,21.49
2023-02-19T18:39:11.027Z,20.38
2023-02-19T18:40:13.346Z,19.23
2023-02-19T18:41:17.021Z,17.25
2023-02-19T18:42:18.999Z,17.46
2023-02-19T18:43:21.019Z,17.67
2023-02-19T18:44:22.820Z,15.46
2023-02-19T18:45:24.677Z,18.59
2023-02-19T18:46:26.565Z,19.59
2023-02-19T18:47:28.414Z,14.99
2023-02-19T18:48:30.215Z,17.06
2023-02-19T18:49:32.031Z,18.13
2023-02-19T18:50:33.859Z,17.21
2023-02-19T18:51:35.732Z,18.61
2023-02-19T18:52:37.536Z,19.94
2023-02-19T18:53:39.353Z,19.92
2023-02-19T18:54:41.170Z,19.23
2023-02-19T18:55:43.125Z,18.91
2023-02-19T18:56:45.116Z,20.71
2023-02-19T18:57:46.937Z,18.68
2023-02-19T18:58:50.366Z,20.01
2023-02-19T18:59:52.462Z,19.18
2023-02-19T19:00:54.430Z,16.78
2023-02-19T19:01:56.296Z,18.99
2023-02-19T19:02:58.130Z,15.08
2023-02-19T19:03:59.971Z,18.21
2023-02-19T19:05:02.106Z,14.25
2023-02-19T19:06:03.915Z,16.77